sensor_id;sensor_type;location;lat;lon;timestamp;pressure;altitude;pressure_sealevel;temperature;humidity
45275;BME280;31019;43.780;25.948;2023-03-18T00:00:50;101879.06;;;1.93;100.00
45275;BME280;31019;43.780;25.948;2023-03-18T00:03:19;101879.53;;;1.87;100.00
45275;BME280;31019;43.780;25.948;2023-03-18T00:05:47;101884.78;;;1.98;100.00
45275;BME280;31019;43.780;25.948;2023-03-18T00:08:21;101872.66;;;1.86;100.00
45275;BME280;31019;43.780;25.948;2023-03-18T00:10:49;101883.00;;;1.87;100.00
45275;BME280;31019;43.780;25.948;2023-03-18T00:13:16;101874.44;;;1.85;100.00
45275;BME280;31019;43.780;25.948;2023-03-18T00:15:43;101875.28;;;1.86;100.00
45275;BME280;31019;43.780;25.948;2023-03-18T00:18:11;101876.19;;;1.84;100.00
45275;BME280;31019;43.780;25.948;2023-03-18T00:20:39;101872.75;;;1.84;100.00
45275;BME280;31019;43.780;25.948;2023-03-18T00:23:07;101870.28;;;1.82;100.00
45275;BME280;31019;43.780;25.948;2023-03-18T00:25:35;101861.59;;;1.82;100.00
45275;BME280;31019;43.780;25.948;2023-03-18T00:28:02;101865.28;;;1.91;100.00
45275;BME280;31019;43.780;25.948;2023-03-18T00:30:29;101859.41;;;1.87;100.00
45275;BME280;31019;43.780;25.948;2023-03-18T00:32:56;101857.28;;;1.81;100.00
45275;BME280;31019;43.780;25.948;2023-03-18T00:35:23;101854.31;;;1.74;100.00
45275;BME280;31019;43.780;25.948;2023-03-18T00:37:53;101857.75;;;1.86;100.00
45275;BME280;31019;43.780;25.948;2023-03-18T00:40:21;101842.75;;;1.88;100.00
45275;BME280;31019;43.780;25.948;2023-03-18T00:42:54;101843.34;;;1.80;100.00
45275;BME280;31019;43.780;25.948;2023-03-18T00:45:32;101853.13;;;1.67;100.00
45275;BME280;31019;43.780;25.948;2023-03-18T00:47:59;101844.91;;;1.72;100.00
45275;BME280;31019;43.780;25.948;2023-03-18T00:50:26;101848.34;;;1.72;100.00
45275;BME280;31019;43.780;25.948;2023-03-18T00:52:55;101845.03;;;1.70;100.00
45275;BME280;31019;43.780;25.948;2023-03-18T00:55:21;101839.91;;;1.69;100.00
45275;BME280;31019;43.780;25.948;2023-03-18T00:57:48;101832.41;;;1.53;100.00
45275;BME280;31019;43.780;25.948;2023-03-18T01:00:16;101834.81;;;1.67;100.00
45275;BME280;31019;43.780;25.948;2023-03-18T01:02:44;101827.19;;;1.53;100.00
45275;BME280;31019;43.780;25.948;2023-03-18T01:05:14;101828.13;;;1.63;100.00
45275;BME280;31019;43.780;25.948;2023-03-18T01:07:42;101827.56;;;1.37;100.00
45275;BME280;31019;43.780;25.948;2023-03-18T01:10:11;101820.28;;;1.41;100.00
45275;BME280;31019;43.780;25.948;2023-03-18T01:12:39;101825.53;;;1.52;100.00
45275;BME280;31019;43.780;25.948;2023-03-18T01:15:07;101823.94;;;1.72;100.00
45275;BME280;31019;43.780;25.948;2023-03-18T01:17:34;101817.69;;;1.52;100.00
45275;BME280;31019;43.780;25.948;2023-03-18T01:20:02;101810.16;;;1.58;100.00
45275;BME280;31019;43.780;25.948;2023-03-18T01:22:29;101816.38;;;1.57;100.00
45275;BME280;31019;43.780;25.948;2023-03-18T01:24:55;101817.16;;;1.69;100.00
45275;BME280;31019;43.780;25.948;2023-03-18T01:27:24;101807.50;;;1.81;100.00
45275;BME280;31019;43.780;25.948;2023-03-18T01:29:51;101801.25;;;1.61;100.00
45275;BME280;31019;43.780;25.948;2023-03-18T01:32:18;101800.50;;;1.70;100.00
45275;BME280;31019;43.780;25.948;2023-03-18T01:34:44;101808.28;;;1.60;100.00
45275;BME280;31019;43.780;25.948;2023-03-18T01:37:11;101815.25;;;1.71;100.00
45275;BME280;31019;43.780;25.948;2023-03-18T01:39:38;101810.25;;;1.68;100.00
45275;BME280;31019;43.780;25.948;2023-03-18T01:42:05;101804.22;;;1.56;100.00
45275;BME280;31019;43.780;25.948;2023-03-18T01:44:33;101806.34;;;1.63;100.00
45275;BME280;31019;43.780;25.948;2023-03-18T01:47:00;101810.41;;;1.44;100.00
45275;BME280;31019;43.780;25.948;2023-03-18T01:49:30;101809.19;;;1.59;100.00
45275;BME280;31019;43.780;25.948;2023-03-18T01:52:08;101807.41;;;1.71;100.00
45275;BME280;31019;43.780;25.948;2023-03-18T01:54:40;101805.84;;;1.69;100.00
45275;BME280;31019;43.780;25.948;2023-03-18T01:57:07;101803.50;;;1.54;100.00
45275;BME280;31019;43.780;25.948;2023-03-18T01:59:38;101803.63;;;1.53;100.00
45275;BME280;31019;43.780;25.948;2023-03-18T02:02:08;101809.44;;;1.56;100.00
45275;BME280;31019;43.780;25.948;2023-03-18T02:04:42;101806.47;;;1.50;100.00
45275;BME280;31019;43.780;25.948;2023-03-18T02:07:14;101810.41;;;1.55;100.00
45275;BME280;31019;43.780;25.948;2023-03-18T02:09:41;101802.66;;;1.54;100.00
45275;BME280;31019;43.780;25.948;2023-03-18T02:12:10;101801.69;;;1.66;100.00
45275;BME280;31019;43.780;25.948;2023-03-18T02:14:40;101801.34;;;1.59;100.00
45275;BME280;31019;43.780;25.948;2023-03-18T02:17:10;101795.41;;;1.46;100.00
45275;BME280;31019;43.780;25.948;2023-03-18T02:19:48;101805.03;;;1.57;100.00
45275;BME280;31019;43.780;25.948;2023-03-18T02:22:23;101813.84;;;1.67;100.00
45275;BME280;31019;43.780;25.948;2023-03-18T02:24:56;101801.97;;;1.52;100.00
45275;BME280;31019;43.780;25.948;2023-03-18T02:27:29;101808.63;;;1.67;100.00
45275;BME280;31019;43.780;25.948;2023-03-18T02:29:59;101808.13;;;1.62;100.00
45275;BME280;31019;43.780;25.948;2023-03-18T02:32:29;101811.56;;;1.74;100.00
45275;BME280;31019;43.780;25.948;2023-03-18T02:34:59;101809.31;;;1.69;100.00
45275;BME280;31019;43.780;25.948;2023-03-18T02:37:27;101816.56;;;1.66;100.00
45275;BME280;31019;43.780;25.948;2023-03-18T02:39:53;101816.09;;;1.72;100.00
45275;BME280;31019;43.780;25.948;2023-03-18T02:42:28;101809.44;;;1.56;100.00
45275;BME280;31019;43.780;25.948;2023-03-18T02:44:57;101818.84;;;1.70;100.00
45275;BME280;31019;43.780;25.948;2023-03-18T02:47:25;101814.44;;;1.71;100.00
45275;BME280;31019;43.780;25.948;2023-03-18T02:49:54;101812.53;;;1.73;100.00
45275;BME280;31019;43.780;25.948;2023-03-18T02:52:20;101816.13;;;1.60;100.00
45275;BME280;31019;43.780;25.948;2023-03-18T02:54:47;101814.22;;;1.51;100.00
45275;BME280;31019;43.780;25.948;2023-03-18T02:57:14;101813.63;;;1.59;100.00
45275;BME280;31019;43.780;25.948;2023-03-18T02:59:42;101819.09;;;1.67;100.00
45275;BME280;31019;43.780;25.948;2023-03-18T03:02:09;101813.50;;;1.60;100.00
45275;BME280;31019;43.780;25.948;2023-03-18T03:04:36;101806.00;;;1.56;100.00
45275;BME280;31019;43.780;25.948;2023-03-18T03:07:02;101807.53;;;1.58;100.00
45275;BME280;31019;43.780;25.948;2023-03-18T03:09:29;101805.66;;;1.38;100.00
45275;BME280;31019;43.780;25.948;2023-03-18T03:11:56;101814.22;;;1.40;100.00
45275;BME280;31019;43.780;25.948;2023-03-18T03:14:23;101805.16;;;1.44;100.00
45275;BME280;31019;43.780;25.948;2023-03-18T03:16:51;101813.50;;;1.60;100.00
45275;BME280;31019;43.780;25.948;2023-03-18T03:19:17;101807.91;;;1.31;100.00
45275;BME280;31019;43.780;25.948;2023-03-18T03:21:44;101807.44;;;1.49;100.00
45275;BME280;31019;43.780;25.948;2023-03-18T03:24:11;101817.19;;;1.47;100.00
45275;BME280;31019;43.780;25.948;2023-03-18T03:26:38;101806.94;;;1.32;100.00
45275;BME280;31019;43.780;25.948;2023-03-18T03:29:05;101803.63;;;1.53;100.00
45275;BME280;31019;43.780;25.948;2023-03-18T03:31:32;101818.59;;;1.51;100.00
45275;BME280;31019;43.780;25.948;2023-03-18T03:34:00;101808.41;;;1.36;100.00
45275;BME280;31019;43.780;25.948;2023-03-18T03:36:27;101812.91;;;1.34;100.00
45275;BME280;31019;43.780;25.948;2023-03-18T03:38:54;101802.78;;;1.30;100.00
45275;BME280;31019;43.780;25.948;2023-03-18T03:41:21;101815.88;;;1.41;100.00
45275;BME280;31019;43.780;25.948;2023-03-18T03:43:47;101810.16;;;1.36;100.00
45275;BME280;31019;43.780;25.948;2023-03-18T03:46:14;101820.16;;;1.42;100.00
45275;BME280;31019;43.780;25.948;2023-03-18T03:48:41;101824.31;;;1.45;100.00
45275;BME280;31019;43.780;25.948;2023-03-18T03:51:09;101823.16;;;1.37;100.00
45275;BME280;31019;43.780;25.948;2023-03-18T03:53:36;101814.69;;;1.45;100.00
45275;BME280;31019;43.780;25.948;2023-03-18T03:56:04;101820.41;;;1.50;100.00
45275;BME280;31019;43.780;25.948;2023-03-18T03:58:32;101823.63;;;1.43;100.00
45275;BME280;31019;43.780;25.948;2023-03-18T04:00:58;101823.97;;;1.38;100.00
45275;BME280;31019;43.780;25.948;2023-03-18T04:03:25;101828.13;;;1.07;100.00
45275;BME280;31019;43.780;25.948;2023-03-18T04:05:52;101837.66;;;1.30;100.00
45275;BME280;31019;43.780;25.948;2023-03-18T04:08:20;101825.75;;;1.26;100.00
45275;BME280;31019;43.780;25.948;2023-03-18T04:10:47;101833.38;;;1.29;100.00
45275;BME280;31019;43.780;25.948;2023-03-18T04:13:14;101839.19;;;1.33;100.00
45275;BME280;31019;43.780;25.948;2023-03-18T04:15:41;101838.84;;;1.15;100.00
45275;BME280;31019;43.780;25.948;2023-03-18T04:18:08;101841.59;;;1.25;100.00
45275;BME280;31019;43.780;25.948;2023-03-18T04:20:35;101839.53;;;1.17;100.00
45275;BME280;31019;43.780;25.948;2023-03-18T04:23:03;101843.25;;;1.26;100.00
45275;BME280;31019;43.780;25.948;2023-03-18T04:25:33;101844.91;;;1.27;100.00
45275;BME280;31019;43.780;25.948;2023-03-18T04:28:01;101848.59;;;1.35;100.00
45275;BME280;31019;43.780;25.948;2023-03-18T04:30:27;101851.13;;;1.37;100.00
45275;BME280;31019;43.780;25.948;2023-03-18T04:32:54;101852.75;;;1.27;100.00
45275;BME280;31019;43.780;25.948;2023-03-18T04:35:22;101857.16;;;1.26;100.00
45275;BME280;31019;43.780;25.948;2023-03-18T04:37:49;101852.50;;;1.30;100.00
45275;BME280;31019;43.780;25.948;2023-03-18T04:40:16;101857.41;;;1.34;100.00
45275;BME280;31019;43.780;25.948;2023-03-18T04:42:45;101854.44;;;1.28;100.00
45275;BME280;31019;43.780;25.948;2023-03-18T04:45:13;101866.81;;;1.37;100.00
45275;BME280;31019;43.780;25.948;2023-03-18T04:47:41;101860.97;;;1.22;100.00
45275;BME280;31019;43.780;25.948;2023-03-18T04:50:09;101865.28;;;1.34;100.00
45275;BME280;31019;43.780;25.948;2023-03-18T04:52:36;101860.97;;;1.22;100.00
45275;BME280;31019;43.780;25.948;2023-03-18T04:55:04;101859.28;;;1.10;100.00
45275;BME280;31019;43.780;25.948;2023-03-18T04:57:31;101865.13;;;1.36;100.00
45275;BME280;31019;43.780;25.948;2023-03-18T05:00:01;101867.66;;;1.37;100.00
45275;BME280;31019;43.780;25.948;2023-03-18T05:02:29;101861.56;;;1.26;100.00
45275;BME280;31019;43.780;25.948;2023-03-18T05:04:55;101870.84;;;1.30;100.00
45275;BME280;31019;43.780;25.948;2023-03-18T05:07:22;101868.72;;;1.35;100.00
45275;BME280;31019;43.780;25.948;2023-03-18T05:09:49;101876.84;;;1.54;100.00
45275;BME280;31019;43.780;25.948;2023-03-18T05:12:16;101879.69;;;1.40;100.00
45275;BME280;31019;43.780;25.948;2023-03-18T05:14:43;101878.25;;;1.58;100.00
45275;BME280;31019;43.780;25.948;2023-03-18T05:17:14;101882.66;;;1.58;100.00
45275;BME280;31019;43.780;25.948;2023-03-18T05:19:42;101888.25;;;1.65;100.00
45275;BME280;31019;43.780;25.948;2023-03-18T05:22:10;101885.41;;;1.68;100.00
45275;BME280;31019;43.780;25.948;2023-03-18T05:24:37;101892.91;;;1.61;100.00
45275;BME280;31019;43.780;25.948;2023-03-18T05:27:03;101897.88;;;1.53;100.00
45275;BME280;31019;43.780;25.948;2023-03-18T05:29:30;101897.31;;;1.60;100.00
45275;BME280;31019;43.780;25.948;2023-03-18T05:31:57;101901.94;;;1.68;100.00
45275;BME280;31019;43.780;25.948;2023-03-18T05:34:25;101905.75;;;1.64;100.00
45275;BME280;31019;43.780;25.948;2023-03-18T05:36:52;101908.25;;;1.77;100.00
45275;BME280;31019;43.780;25.948;2023-03-18T05:39:19;101909.09;;;1.77;100.00
45275;BME280;31019;43.780;25.948;2023-03-18T05:41:45;101911.81;;;1.98;100.00
45275;BME280;31019;43.780;25.948;2023-03-18T05:44:12;101919.66;;;2.10;100.00
45275;BME280;31019;43.780;25.948;2023-03-18T05:46:39;101912.06;;;1.95;100.00
45275;BME280;31019;43.780;25.948;2023-03-18T05:49:06;101931.91;;;2.20;100.00
45275;BME280;31019;43.780;25.948;2023-03-18T05:51:34;101939.34;;;2.59;100.00
45275;BME280;31019;43.780;25.948;2023-03-18T05:54:02;101933.53;;;3.08;100.00
45275;BME280;31019;43.780;25.948;2023-03-18T05:56:29;101935.06;;;2.90;100.00
45275;BME280;31019;43.780;25.948;2023-03-18T05:58:57;101927.03;;;2.70;100.00
45275;BME280;31019;43.780;25.948;2023-03-18T06:01:23;101923.13;;;2.65;100.00
45275;BME280;31019;43.780;25.948;2023-03-18T06:03:50;101916.28;;;2.73;100.00
45275;BME280;31019;43.780;25.948;2023-03-18T06:06:18;101903.16;;;2.73;100.00
45275;BME280;31019;43.780;25.948;2023-03-18T06:08:46;101895.91;;;2.66;100.00
45275;BME280;31019;43.780;25.948;2023-03-18T06:11:12;101895.84;;;2.56;100.00
45275;BME280;31019;43.780;25.948;2023-03-18T06:13:39;101908.75;;;2.80;100.00
45275;BME280;31019;43.780;25.948;2023-03-18T06:16:07;101897.75;;;2.86;100.00
45275;BME280;31019;43.780;25.948;2023-03-18T06:18:34;101892.50;;;2.86;100.00
45275;BME280;31019;43.780;25.948;2023-03-18T06:21:01;101900.00;;;2.91;100.00
45275;BME280;31019;43.780;25.948;2023-03-18T06:23:27;101901.72;;;3.02;100.00
45275;BME280;31019;43.780;25.948;2023-03-18T06:25:56;101906.13;;;3.01;100.00
45275;BME280;31019;43.780;25.948;2023-03-18T06:28:22;101913.13;;;3.12;100.00
45275;BME280;31019;43.780;25.948;2023-03-18T06:30:49;101900.63;;;3.04;100.00
45275;BME280;31019;43.780;25.948;2023-03-18T06:33:16;101904.78;;;3.28;100.00
45275;BME280;31019;43.780;25.948;2023-03-18T06:35:43;101899.47;;;3.39;100.00
45275;BME280;31019;43.780;25.948;2023-03-18T06:38:09;101897.78;;;3.38;100.00
45275;BME280;31019;43.780;25.948;2023-03-18T06:40:38;101898.50;;;3.40;100.00
45275;BME280;31019;43.780;25.948;2023-03-18T06:43:07;101900.03;;;3.42;100.00
45275;BME280;31019;43.780;25.948;2023-03-18T06:45:33;101904.06;;;3.77;100.00
45275;BME280;31019;43.780;25.948;2023-03-18T06:48:00;101909.06;;;3.80;100.00
45275;BME280;31019;43.780;25.948;2023-03-18T06:50:28;101906.97;;;4.24;100.00
45275;BME280;31019;43.780;25.948;2023-03-18T06:52:54;101909.44;;;4.16;100.00
45275;BME280;31019;43.780;25.948;2023-03-18T06:55:22;101919.75;;;4.48;100.00
45275;BME280;31019;43.780;25.948;2023-03-18T06:57:49;101917.09;;;4.29;100.00
45275;BME280;31019;43.780;25.948;2023-03-18T07:00:19;101915.38;;;4.08;100.00
45275;BME280;31019;43.780;25.948;2023-03-18T07:02:46;101913.41;;;4.99;100.00
45275;BME280;31019;43.780;25.948;2023-03-18T07:05:12;101908.69;;;4.54;100.00
45275;BME280;31019;43.780;25.948;2023-03-18T07:07:40;101909.91;;;5.65;100.00
45275;BME280;31019;43.780;25.948;2023-03-18T07:10:09;101902.94;;;6.57;100.00
45275;BME280;31019;43.780;25.948;2023-03-18T07:12:36;101902.38;;;6.89;100.00
45275;BME280;31019;43.780;25.948;2023-03-18T07:15:05;101896.75;;;7.10;100.00
45275;BME280;31019;43.780;25.948;2023-03-18T07:17:33;101891.72;;;7.51;100.00
45275;BME280;31019;43.780;25.948;2023-03-18T07:20:01;101891.31;;;7.38;100.00
45275;BME280;31019;43.780;25.948;2023-03-18T07:22:30;101897.38;;;7.98;100.00
45275;BME280;31019;43.780;25.948;2023-03-18T07:24:56;101892.88;;;7.48;100.00
45275;BME280;31019;43.780;25.948;2023-03-18T07:27:24;101894.00;;;7.80;100.00
45275;BME280;31019;43.780;25.948;2023-03-18T07:29:51;101897.03;;;7.59;100.00
45275;BME280;31019;43.780;25.948;2023-03-18T07:32:18;101897.25;;;7.66;100.00
45275;BME280;31019;43.780;25.948;2023-03-18T07:34:46;101881.28;;;7.84;100.00
45275;BME280;31019;43.780;25.948;2023-03-18T07:37:13;101892.31;;;8.13;100.00
45275;BME280;31019;43.780;25.948;2023-03-18T07:39:41;101892.31;;;8.13;100.00
45275;BME280;31019;43.780;25.948;2023-03-18T07:42:08;101903.06;;;8.20;100.00
45275;BME280;31019;43.780;25.948;2023-03-18T07:44:35;101896.56;;;7.98;100.00
45275;BME280;31019;43.780;25.948;2023-03-18T07:47:03;101895.41;;;8.00;93.08
45275;BME280;31019;43.780;25.948;2023-03-18T07:49:30;101892.75;;;8.43;92.74
45275;BME280;31019;43.780;25.948;2023-03-18T07:51:59;101886.56;;;8.34;95.57
45275;BME280;31019;43.780;25.948;2023-03-18T07:54:26;101897.78;;;8.20;94.86
45275;BME280;31019;43.780;25.948;2023-03-18T07:56:53;101900.56;;;8.10;93.55
45275;BME280;31019;43.780;25.948;2023-03-18T07:59:19;101908.00;;;8.65;94.70
45275;BME280;31019;43.780;25.948;2023-03-18T08:01:46;101900.22;;;9.21;91.63
45275;BME280;31019;43.780;25.948;2023-03-18T08:04:13;101903.81;;;9.45;99.61
45275;BME280;31019;43.780;25.948;2023-03-18T08:06:40;101906.66;;;9.35;95.45
45275;BME280;31019;43.780;25.948;2023-03-18T08:09:09;101911.97;;;9.27;80.91
45275;BME280;31019;43.780;25.948;2023-03-18T08:11:36;101909.81;;;9.30;84.01
45275;BME280;31019;43.780;25.948;2023-03-18T08:14:03;101913.28;;;9.39;89.14
45275;BME280;31019;43.780;25.948;2023-03-18T08:16:30;101903.91;;;10.07;85.59
45275;BME280;31019;43.780;25.948;2023-03-18T08:18:56;101911.91;;;10.38;82.16
45275;BME280;31019;43.780;25.948;2023-03-18T08:21:23;101910.22;;;10.68;78.48
45275;BME280;31019;43.780;25.948;2023-03-18T08:23:50;101908.72;;;10.43;73.75
45275;BME280;31019;43.780;25.948;2023-03-18T08:26:18;101903.19;;;9.82;74.59
45275;BME280;31019;43.780;25.948;2023-03-18T08:28:44;101907.72;;;10.04;71.90
45275;BME280;31019;43.780;25.948;2023-03-18T08:31:13;101906.03;;;10.20;76.64
45275;BME280;31019;43.780;25.948;2023-03-18T08:33:40;101898.16;;;10.58;67.77
45275;BME280;31019;43.780;25.948;2023-03-18T08:36:08;101907.31;;;10.78;71.72
45275;BME280;31019;43.780;25.948;2023-03-18T08:38:34;101900.91;;;11.25;74.11
45275;BME280;31019;43.780;25.948;2023-03-18T08:41:01;101896.97;;;11.21;75.96
45275;BME280;31019;43.780;25.948;2023-03-18T08:43:30;101898.91;;;11.42;69.79
45275;BME280;31019;43.780;25.948;2023-03-18T08:45:57;101891.38;;;11.60;64.50
45275;BME280;31019;43.780;25.948;2023-03-18T08:48:24;101894.88;;;11.76;72.56
45275;BME280;31019;43.780;25.948;2023-03-18T08:51:03;101901.41;;;10.45;68.52
45275;BME280;31019;43.780;25.948;2023-03-18T08:53:32;101896.25;;;11.42;64.00
45275;BME280;31019;43.780;25.948;2023-03-18T08:56:02;101896.44;;;11.26;60.36
45275;BME280;31019;43.780;25.948;2023-03-18T08:58:31;101892.94;;;11.25;60.22
45275;BME280;31019;43.780;25.948;2023-03-18T09:01:00;101898.78;;;12.09;60.73
45275;BME280;31019;43.780;25.948;2023-03-18T09:03:28;101890.00;;;11.79;62.13
45275;BME280;31019;43.780;25.948;2023-03-18T09:05:55;101898.22;;;12.50;60.42
45275;BME280;31019;43.780;25.948;2023-03-18T09:08:22;101891.34;;;11.16;53.03
45275;BME280;31019;43.780;25.948;2023-03-18T09:10:55;101897.13;;;12.66;58.49
45275;BME280;31019;43.780;25.948;2023-03-18T09:13:23;101890.53;;;13.33;58.85
45275;BME280;31019;43.780;25.948;2023-03-18T09:15:51;101888.06;;;12.82;56.83
45275;BME280;31019;43.780;25.948;2023-03-18T09:18:18;101885.13;;;11.83;59.65
45275;BME280;31019;43.780;25.948;2023-03-18T09:20:47;101888.34;;;12.08;56.68
45275;BME280;31019;43.780;25.948;2023-03-18T09:23:15;101879.41;;;12.37;54.62
45275;BME280;31019;43.780;25.948;2023-03-18T09:25:43;101878.06;;;12.41;61.33
45275;BME280;31019;43.780;25.948;2023-03-18T09:28:11;101873.75;;;13.87;54.56
45275;BME280;31019;43.780;25.948;2023-03-18T09:30:38;101882.28;;;14.17;55.95
45275;BME280;31019;43.780;25.948;2023-03-18T09:33:07;101873.84;;;13.59;52.39
45275;BME280;31019;43.780;25.948;2023-03-18T09:35:36;101873.13;;;12.88;47.08
45275;BME280;31019;43.780;25.948;2023-03-18T09:38:03;101873.59;;;13.19;52.06
45275;BME280;31019;43.780;25.948;2023-03-18T09:40:32;101874.31;;;13.35;55.04
45275;BME280;31019;43.780;25.948;2023-03-18T09:43:12;101872.41;;;12.51;51.45
45275;BME280;31019;43.780;25.948;2023-03-18T09:45:45;101878.25;;;13.39;50.34
45275;BME280;31019;43.780;25.948;2023-03-18T09:48:38;101875.34;;;14.43;50.00
45275;BME280;31019;43.780;25.948;2023-03-18T09:51:19;101867.53;;;15.41;45.51
45275;BME280;31019;43.780;25.948;2023-03-18T09:53:53;101859.84;;;15.51;49.78
45275;BME280;31019;43.780;25.948;2023-03-18T09:56:24;101872.41;;;16.16;51.04
45275;BME280;31019;43.780;25.948;2023-03-18T09:58:56;101866.09;;;14.32;43.81
45275;BME280;31019;43.780;25.948;2023-03-18T10:01:26;101873.06;;;14.27;45.75
45275;BME280;31019;43.780;25.948;2023-03-18T10:03:58;101863.66;;;15.10;46.47
45275;BME280;31019;43.780;25.948;2023-03-18T10:06:28;101852.28;;;15.42;43.71
45275;BME280;31019;43.780;25.948;2023-03-18T10:09:02;101858.47;;;15.35;45.49
45275;BME280;31019;43.780;25.948;2023-03-18T10:11:34;101857.91;;;14.94;44.24
45275;BME280;31019;43.780;25.948;2023-03-18T10:14:17;101845.41;;;12.82;55.13
45275;BME280;31019;43.780;25.948;2023-03-18T10:16:58;101852.66;;;12.67;60.95
45275;BME280;31019;43.780;25.948;2023-03-18T10:19:30;101845.06;;;13.20;43.46
45275;BME280;31019;43.780;25.948;2023-03-18T10:22:06;101842.34;;;13.41;54.92
45275;BME280;31019;43.780;25.948;2023-03-18T10:24:39;101832.50;;;16.01;47.16
45275;BME280;31019;43.780;25.948;2023-03-18T10:27:13;101839.94;;;13.53;46.96
45275;BME280;31019;43.780;25.948;2023-03-18T10:29:46;101838.78;;;13.06;58.27
45275;BME280;31019;43.780;25.948;2023-03-18T10:32:25;101824.75;;;15.15;47.43
45275;BME280;31019;43.780;25.948;2023-03-18T10:35:03;101833.03;;;13.72;43.06
45275;BME280;31019;43.780;25.948;2023-03-18T10:37:41;101828.06;;;14.97;47.96
45275;BME280;31019;43.780;25.948;2023-03-18T10:40:14;101833.53;;;13.95;41.08
45275;BME280;31019;43.780;25.948;2023-03-18T10:42:42;101821.00;;;14.03;45.42
45275;BME280;31019;43.780;25.948;2023-03-18T10:45:19;101823.69;;;14.03;47.17
45275;BME280;31019;43.780;25.948;2023-03-18T10:47:52;101816.34;;;14.44;42.70
45275;BME280;31019;43.780;25.948;2023-03-18T10:50:29;101797.00;;;15.74;40.79
45275;BME280;31019;43.780;25.948;2023-03-18T10:53:01;101809.91;;;16.15;45.51
45275;BME280;31019;43.780;25.948;2023-03-18T10:55:34;101803.50;;;15.33;42.65
45275;BME280;31019;43.780;25.948;2023-03-18T10:58:12;101798.84;;;15.02;43.20
45275;BME280;31019;43.780;25.948;2023-03-18T11:00:40;101805.25;;;13.60;52.28
45275;BME280;31019;43.780;25.948;2023-03-18T11:03:15;101802.25;;;13.83;52.35
45275;BME280;31019;43.780;25.948;2023-03-18T11:05:45;101785.16;;;15.43;44.52
45275;BME280;31019;43.780;25.948;2023-03-18T11:08:28;101791.66;;;15.61;44.99
45275;BME280;31019;43.780;25.948;2023-03-18T11:10:57;101801.75;;;14.67;45.68
45275;BME280;31019;43.780;25.948;2023-03-18T11:13:25;101794.06;;;15.24;46.04
45275;BME280;31019;43.780;25.948;2023-03-18T11:15:54;101792.28;;;16.33;44.36
45275;BME280;31019;43.780;25.948;2023-03-18T11:18:28;101794.75;;;16.59;46.66
45275;BME280;31019;43.780;25.948;2023-03-18T11:20:59;101789.94;;;16.68;44.08
45275;BME280;31019;43.780;25.948;2023-03-18T11:23:31;101785.25;;;17.25;40.40
45275;BME280;31019;43.780;25.948;2023-03-18T11:26:19;101777.84;;;17.39;42.97
45275;BME280;31019;43.780;25.948;2023-03-18T11:28:45;101787.88;;;17.80;37.79
45275;BME280;31019;43.780;25.948;2023-03-18T11:31:16;101778.44;;;16.11;45.70
45275;BME280;31019;43.780;25.948;2023-03-18T11:33:43;101780.78;;;14.44;43.15
45275;BME280;31019;43.780;25.948;2023-03-18T11:36:16;101776.03;;;14.93;45.46
45275;BME280;31019;43.780;25.948;2023-03-18T11:38:55;101771.47;;;15.13;53.48
45275;BME280;31019;43.780;25.948;2023-03-18T11:41:24;101781.84;;;16.49;45.92
45275;BME280;31019;43.780;25.948;2023-03-18T11:43:56;101775.44;;;16.25;46.47
45275;BME280;31019;43.780;25.948;2023-03-18T11:46:26;101771.63;;;15.76;42.33
45275;BME280;31019;43.780;25.948;2023-03-18T11:48:55;101769.88;;;15.95;44.74
45275;BME280;31019;43.780;25.948;2023-03-18T11:51:37;101757.09;;;14.94;41.70
45275;BME280;31019;43.780;25.948;2023-03-18T11:56:54;101760.63;;;15.40;48.33
45275;BME280;31019;43.780;25.948;2023-03-18T11:59:29;101760.81;;;14.93;45.50
45275;BME280;31019;43.780;25.948;2023-03-18T12:02:11;101762.34;;;16.11;43.87
45275;BME280;31019;43.780;25.948;2023-03-18T12:07:58;101762.84;;;17.50;42.80
45275;BME280;31019;43.780;25.948;2023-03-18T12:10:31;101762.94;;;17.25;42.38
45275;BME280;31019;43.780;25.948;2023-03-18T12:13:14;101768.16;;;16.33;44.68
45275;BME280;31019;43.780;25.948;2023-03-18T12:15:48;101764.22;;;16.03;41.80
45275;BME280;31019;43.780;25.948;2023-03-18T12:18:36;101756.56;;;15.30;40.65
45275;BME280;31019;43.780;25.948;2023-03-18T12:21:16;101754.56;;;18.23;43.04
45275;BME280;31019;43.780;25.948;2023-03-18T12:24:05;101742.84;;;18.06;38.70
45275;BME280;31019;43.780;25.948;2023-03-18T12:26:39;101742.25;;;17.74;37.95
45275;BME280;31019;43.780;25.948;2023-03-18T12:29:32;101733.91;;;17.33;39.08
45275;BME280;31019;43.780;25.948;2023-03-18T12:32:07;101737.03;;;17.30;38.11
45275;BME280;31019;43.780;25.948;2023-03-18T12:34:53;101728.84;;;17.74;39.98
45275;BME280;31019;43.780;25.948;2023-03-18T12:37:31;101748.31;;;14.60;49.94
45275;BME280;31019;43.780;25.948;2023-03-18T12:40:16;101740.50;;;15.37;43.82
45275;BME280;31019;43.780;25.948;2023-03-18T12:42:54;101742.94;;;14.34;42.63
45275;BME280;31019;43.780;25.948;2023-03-18T12:45:29;101733.41;;;15.04;41.65
45275;BME280;31019;43.780;25.948;2023-03-18T12:47:59;101725.63;;;16.11;45.92
45275;BME280;31019;43.780;25.948;2023-03-18T12:50:31;101722.16;;;16.79;40.92
45275;BME280;31019;43.780;25.948;2023-03-18T12:53:02;101732.66;;;15.35;47.90
45275;BME280;31019;43.780;25.948;2023-03-18T12:55:34;101721.91;;;17.36;37.21
45275;BME280;31019;43.780;25.948;2023-03-18T12:58:06;101733.16;;;17.75;37.56